createdAt,value
2018-09-18T00:04:20.106Z,23.85
2018-09-18T00:09:23.558Z,23.78
2018-09-18T00:14:27.038Z,23.77
2018-09-18T00:19:30.508Z,23.74
2018-09-18T00:24:33.982Z,23.68
2018-09-18T00:29:37.448Z,23.65
2018-09-18T00:34:40.915Z,23.59
2018-09-18T00:39:44.382Z,23.58
2018-09-18T00:44:47.883Z,23.55
2018-09-18T00:49:51.348Z,23.51
2018-09-18T00:54:54.802Z,23.45
2018-09-18T00:59:58.253Z,23.43
2018-09-18T01:05:01.732Z,23.40
2018-09-18T01:10:05.559Z,23.36
2018-09-18T01:15:09.040Z,23.32
2018-09-18T01:20:12.522Z,23.28
2018-09-18T01:25:15.988Z,23.26
2018-09-18T01:30:19.455Z,23.21
2018-09-18T01:35:22.927Z,23.18
2018-09-18T01:40:26.407Z,23.17
2018-09-18T01:45:29.855Z,23.15
2018-09-18T01:50:33.314Z,23.12
2018-09-18T01:55:36.788Z,23.09
2018-09-18T02:00:40.250Z,23.07
2018-09-18T02:05:43.730Z,23.05
2018-09-18T02:10:47.411Z,23.03
2018-09-18T02:15:50.907Z,22.99
2018-09-18T02:20:54.368Z,22.98
2018-09-18T02:25:57.836Z,22.94
2018-09-18T02:31:01.311Z,22.91
2018-09-18T02:36:04.770Z,22.88
2018-09-18T02:41:08.254Z,22.86
2018-09-18T02:46:12.047Z,22.83
2018-09-18T02:51:15.513Z,22.83
2018-09-18T02:56:18.998Z,22.80
2018-09-18T03:01:22.476Z,22.78
2018-09-18T03:06:25.950Z,22.77
2018-09-18T03:11:29.480Z,22.75
2018-09-18T03:16:32.939Z,22.74
2018-09-18T03:21:36.399Z,22.71
2018-09-18T03:26:39.864Z,22.70
2018-09-18T03:31:43.329Z,22.69
2018-09-18T03:36:46.839Z,22.64
2018-09-18T03:41:50.306Z,22.62
2018-09-18T03:46:53.767Z,22.54
2018-09-18T03:51:57.272Z,22.50
2018-09-18T03:57:00.771Z,22.46
2018-09-18T04:02:04.248Z,22.50
2018-09-18T04:07:07.778Z,22.42
2018-09-18T04:12:11.463Z,22.41
2018-09-18T04:17:14.944Z,22.39
2018-09-18T04:22:18.431Z,22.34
2018-09-18T04:27:21.895Z,22.30
2018-09-18T04:32:25.358Z,22.33
2018-09-18T04:37:28.859Z,22.33
2018-09-18T04:42:32.328Z,22.23
2018-09-18T04:47:35.813Z,22.15
2018-09-18T04:52:39.296Z,22.13
2018-09-18T04:57:42.756Z,22.07
2018-09-18T05:02:46.227Z,22.00
2018-09-18T05:07:49.707Z,22.00
2018-09-18T05:12:53.152Z,22.00
2018-09-18T05:17:56.620Z,22.01
2018-09-18T05:23:00.047Z,22.01
2018-09-18T05:28:03.494Z,21.99
2018-09-18T05:33:06.982Z,22.00
2018-09-18T05:38:10.489Z,22.02
2018-09-18T05:43:13.998Z,21.96
2018-09-18T05:48:17.497Z,21.84
2018-09-18T05:53:20.932Z,21.78
2018-09-18T05:58:24.395Z,21.77
2018-09-18T06:03:27.831Z,21.78
2018-09-18T06:08:31.287Z,21.65
2018-09-18T06:13:34.727Z,21.83
2018-09-18T06:18:38.236Z,21.34
2018-09-18T06:23:41.684Z,20.92
2018-09-18T06:28:45.136Z,20.78
2018-09-18T06:33:48.608Z,20.77
2018-09-18T06:38:52.201Z,20.66
2018-09-18T06:43:55.688Z,20.60
2018-09-18T06:48:59.134Z,20.56
2018-09-18T06:54:02.612Z,20.62
2018-09-18T06:59:06.126Z,20.59
2018-09-18T07:04:09.555Z,20.59
2018-09-18T07:09:13.019Z,20.65
2018-09-18T07:14:16.471Z,20.80
2018-09-18T07:19:19.929Z,20.90
2018-09-18T07:24:23.380Z,20.99
2018-09-18T07:29:26.900Z,21.12
2018-09-18T07:34:30.551Z,21.21
2018-09-18T07:39:34.036Z,21.16
2018-09-18T07:44:37.486Z,21.23
2018-09-18T07:49:40.956Z,21.36
2018-09-18T07:54:44.407Z,21.44
2018-09-18T07:59:47.863Z,21.51
2018-09-18T08:04:51.313Z,21.62
2018-09-18T08:09:54.760Z,21.64
2018-09-18T08:14:58.214Z,21.78
2018-09-18T08:20:01.702Z,21.89
2018-09-18T08:25:05.287Z,21.99
2018-09-18T08:30:08.787Z,22.07
2018-09-18T08:35:12.263Z,22.17
2018-09-18T08:40:15.738Z,22.27
2018-09-18T08:45:19.214Z,22.32
2018-09-18T08:50:22.667Z,22.38
2018-09-18T08:55:26.146Z,22.44
2018-09-18T09:00:29.640Z,22.44
2018-09-18T09:05:33.162Z,22.51
2018-09-18T09:10:36.636Z,22.59
2018-09-18T09:15:40.220Z,22.64
2018-09-18T09:20:43.732Z,22.59
2018-09-18T09:25:47.197Z,22.60
2018-09-18T09:30:50.705Z,22.65
2018-09-18T09:35:54.184Z,22.68
2018-09-18T09:40:57.623Z,22.71
2018-09-18T09:46:01.146Z,22.74
2018-09-18T09:51:05.707Z,22.77
2018-09-18T09:56:09.154Z,22.77
2018-09-18T10:01:17.771Z,22.80
2018-09-18T10:06:21.223Z,22.86
2018-09-18T10:11:24.656Z,22.87
2018-09-18T10:16:28.127Z,22.99
2018-09-18T10:21:31.557Z,23.17
2018-09-18T10:26:35.058Z,23.20
2018-09-18T10:31:38.502Z,23.28
2018-09-18T10:36:42.010Z,23.34
2018-09-18T10:41:45.554Z,23.32
2018-09-18T10:46:49.086Z,23.34
2018-09-18T10:51:52.562Z,23.42
2018-09-18T10:56:56.023Z,23.51
2018-09-18T11:01:59.551Z,23.40
2018-09-18T11:07:03.062Z,23.50
2018-09-18T11:12:06.494Z,23.65
2018-09-18T11:17:09.940Z,23.56
2018-09-18T11:22:13.440Z,23.63
2018-09-18T11:27:22.049Z,23.63
2018-09-18T11:34:23.217Z,23.82
2018-09-18T11:39:26.643Z,24.01
2018-09-18T11:44:30.073Z,23.84
2018-09-18T11:49:33.540Z,23.78
2018-09-18T11:54:37.031Z,23.71
2018-09-18T11:59:40.545Z,23.68
2018-09-18T12:04:44.102Z,23.69
2018-09-18T12:09:47.496Z,23.69
2018-09-18T12:14:50.963Z,23.72
2018-09-18T12:19:54.396Z,23.70
2018-09-18T12:24:57.849Z,23.73
2018-09-18T12:30:01.312Z,23.71
2018-09-18T12:35:04.861Z,23.71
2018-09-18T12:40:08.474Z,23.70
2018-09-18T12:45:11.935Z,23.72
2018-09-18T12:50:15.588Z,23.72
2018-09-18T12:55:18.856Z,23.73
2018-09-18T13:00:22.380Z,23.72
2018-09-18T13:05:25.830Z,23.78
2018-09-18T13:10:29.259Z,23.78
2018-09-18T13:15:32.748Z,23.78
2018-09-18T13:20:36.203Z,23.78
2018-09-18T13:25:39.653Z,23.88
2018-09-18T13:30:43.127Z,23.87
2018-09-18T13:35:46.619Z,23.84
2018-09-18T13:40:50.076Z,23.88
2018-09-18T13:45:53.520Z,23.89
2018-09-18T13:50:56.978Z,23.90
2018-09-18T13:56:00.451Z,23.92
2018-09-18T14:01:04.039Z,23.94
2018-09-18T14:06:07.444Z,23.97
2018-09-18T14:11:10.906Z,23.94
2018-09-18T14:16:14.328Z,23.94
2018-09-18T14:26:49.803Z,23.92
2018-09-18T14:31:53.250Z,23.93
2018-09-18T14:36:56.675Z,23.93
2018-09-18T14:54:19.819Z,23.86
2018-09-18T14:59:23.412Z,23.96
2018-09-18T15:04:26.878Z,24.03
2018-09-18T15:09:30.376Z,24.15
2018-09-18T15:14:33.836Z,24.22
2018-09-18T15:19:37.541Z,24.33
2018-09-18T15:24:41.023Z,24.39
2018-09-18T15:29:44.599Z,24.43
2018-09-18T15:34:48.046Z,24.41
2018-09-18T15:39:51.680Z,24.38
2018-09-18T15:44:55.177Z,24.42
2018-09-18T15:49:58.616Z,24.46
2018-09-18T15:55:02.133Z,24.49
2018-09-18T16:00:05.842Z,24.49
2018-09-18T16:05:09.334Z,24.54
2018-09-18T16:10:12.786Z,24.56
2018-09-18T16:15:16.264Z,24.57
2018-09-18T16:20:19.773Z,24.60
2018-09-18T16:25:23.567Z,24.68
2018-09-18T16:30:27.137Z,24.64
2018-09-18T16:35:30.660Z,24.78
2018-09-18T16:40:34.154Z,24.82
2018-09-18T16:45:37.671Z,24.78
2018-09-18T16:50:41.226Z,24.73
2018-09-18T16:55:44.693Z,24.73
2018-09-18T17:00:48.268Z,24.74
2018-09-18T17:05:51.730Z,24.75
2018-09-18T17:10:55.242Z,24.79
2018-09-18T17:15:58.812Z,24.81
2018-09-18T17:21:02.321Z,24.86
2018-09-18T17:26:05.874Z,24.89
2018-09-18T17:31:09.442Z,24.95
2018-09-18T17:36:12.916Z,24.95
2018-09-18T17:41:16.502Z,24.96
2018-09-18T17:46:19.971Z,25.02
2018-09-18T17:51:23.493Z,25.07
2018-09-18T17:56:26.947Z,25.08
2018-09-18T18:01:30.406Z,25.15
2018-09-18T18:06:33.973Z,25.15
2018-09-18T18:11:37.583Z,25.18
2018-09-18T18:16:40.996Z,25.18
2018-09-18T18:21:44.505Z,25.16
2018-09-18T18:26:48.047Z,25.19
2018-09-18T18:31:51.855Z,25.18
2018-09-18T18:36:55.309Z,25.18
2018-09-18T18:41:59.040Z,25.16
2018-09-18T18:47:02.576Z,25.14
2018-09-18T18:52:06.429Z,25.11
2018-09-18T18:57:09.943Z,25.15
2018-09-18T19:02:13.372Z,25.19
2018-09-18T19:07:16.814Z,25.18
2018-09-18T19:12:42.691Z,25.21
2018-09-18T19:17:46.130Z,25.12
2018-09-18T19:22:49.670Z,25.08
2018-09-18T19:27:53.240Z,25.09
2018-09-18T19:32:56.757Z,25.08
2018-09-18T19:38:00.264Z,25.07
2018-09-18T19:43:03.729Z,25.02
2018-09-18T19:48:07.300Z,25.06
2018-09-18T19:53:10.781Z,25.02
2018-09-18T19:58:14.261Z,25.00
2018-09-18T20:03:17.824Z,24.98
2018-09-18T20:08:21.573Z,24.98
2018-09-18T20:13:25.031Z,24.96
2018-09-18T20:18:28.537Z,24.97
2018-09-18T20:23:32.012Z,24.96
2018-09-18T20:28:35.475Z,25.07
2018-09-18T20:33:38.974Z,25.18
2018-09-18T20:38:42.482Z,25.13
2018-09-18T20:43:45.955Z,25.18
2018-09-18T20:48:49.431Z,25.17
2018-09-18T20:53:52.944Z,25.18
2018-09-18T20:58:56.407Z,25.18
2018-09-18T21:03:59.854Z,25.19
2018-09-18T21:09:03.374Z,25.17
2018-09-18T21:14:07.315Z,25.17
2018-09-18T21:19:10.759Z,25.16
2018-09-18T21:24:14.199Z,25.20
2018-09-18T21:29:17.627Z,25.18
2018-09-18T21:34:21.432Z,25.18
2018-09-18T21:39:24.883Z,25.25
2018-09-18T21:44:28.314Z,25.18
2018-09-18T21:49:31.812Z,25.18
2018-09-18T21:54:35.255Z,25.17
2018-09-18T21:59:38.727Z,25.18
2018-09-18T22:04:42.174Z,25.17
2018-09-18T22:09:45.652Z,25.15
2018-09-18T22:14:49.088Z,25.18
2018-09-18T22:19:52.581Z,25.17
2018-09-18T22:24:56.047Z,25.18
2018-09-18T22:29:59.575Z,25.18
2018-09-18T22:35:03.129Z,25.19
2018-09-18T22:40:06.900Z,25.20
2018-09-18T22:45:10.429Z,25.20
2018-09-18T22:50:13.864Z,25.23
2018-09-18T22:55:17.341Z,25.22
2018-09-18T23:00:20.815Z,25.21
2018-09-18T23:05:24.283Z,25.21
2018-09-18T23:10:27.762Z,25.22
2018-09-18T23:15:31.215Z,25.23
2018-09-18T23:20:34.695Z,25.20
2018-09-18T23:25:38.169Z,25.22
2018-09-18T23:30:41.625Z,25.21
2018-09-18T23:35:45.099Z,25.21
2018-09-18T23:40:48.539Z,25.19
2018-09-18T23:45:52.028Z,25.23
2018-09-18T23:50:55.466Z,25.24
2018-09-18T23:55:58.993Z,25.21
